Time;durP1;ratioP1;P1;durP2;ratioP2;P2;SDS_P1;SDS_P2;PMS_P1;PMS_P2;Temp;Humidity;BMP_temperature;BMP_pressure;BME280_temperature;BME280_humidity;BME280_pressure;Samples;Min_cycle;Max_cycle;Signal;HPM_P1;HPM_P2
2021/04/15 00:02:04;;;;;;;0.75;0.60;;;21.90;33.20;;;;;;5064469;28;20068;-65
2021/04/15 00:04:31;;;;;;;1.23;1.13;;;21.90;33.20;;;;;;5063550;28;20053;-65
2021/04/15 00:06:58;;;;;;;0.85;0.85;;;21.90;33.20;;;;;;5064269;28;20456;-65
2021/04/15 00:09:25;;;;;;;0.73;0.73;;;21.90;33.20;;;;;;5062280;28;20143;-64
2021/04/15 00:11:52;;;;;;;1.27;1.00;;;21.90;33.20;;;;;;5064094;28;20102;-64
2021/04/15 00:14:23;;;;;;;1.67;1.17;;;21.90;33.20;;;;;;5064444;28;20044;-64
2021/04/15 00:16:50;;;;;;;;;;;21.90;33.20;;;;;;5064689;28;20045;-64
2021/04/15 00:19:18;;;;;;;0.80;0.77;;;21.90;33.20;;;;;;5064310;28;20354;-64
2021/04/15 00:21:47;;;;;;;1.13;1.02;;;21.90;33.20;;;;;;5061301;28;20059;-65
2021/04/15 00:24:14;;;;;;;1.77;1.10;;;21.90;33.20;;;;;;5063645;28;20532;-65
2021/04/15 00:26:42;;;;;;;1.80;0.90;;;21.90;33.10;;;;;;5064073;28;20076;-65
2021/04/15 00:29:08;;;;;;;1.05;0.90;;;21.90;33.20;;;;;;5063335;28;20473;-66
2021/04/15 00:31:36;;;;;;;2.70;1.40;;;21.90;33.10;;;;;;5063680;28;20083;-64
2021/04/15 00:34:02;;;;;;;1.27;0.98;;;21.90;33.20;;;;;;5063151;28;20436;-64
2021/04/15 00:36:29;;;;;;;1.10;1.00;;;21.90;33.20;;;;;;5063953;28;20040;-63
2021/04/15 00:38:56;;;;;;;1.38;1.08;;;21.90;33.20;;;;;;5063986;28;20053;-63
2021/04/15 00:41:24;;;;;;;1.63;1.52;;;21.90;33.20;;;;;;5062350;28;20493;-63
2021/04/15 00:43:51;;;;;;;1.05;0.90;;;21.90;33.20;;;;;;5064158;28;20051;-63
2021/04/15 00:46:56;;;;;;;1.30;1.20;;;21.90;33.20;;;;;;5064087;28;20040;-64
2021/04/15 00:49:33;;;;;;;1.42;1.33;;;21.80;33.20;;;;;;5062816;28;20048;-63
2021/04/15 00:52:09;;;;;;;1.40;1.15;;;21.80;33.20;;;;;;5063597;28;20048;-63
2021/04/15 00:54:51;;;;;;;0.80;0.80;;;21.80;33.20;;;;;;5064273;28;20087;-63
2021/04/15 00:57:26;;;;;;;2.03;1.40;;;21.80;33.20;;;;;;5063535;28;20074;-64
2021/04/15 00:59:53;;;;;;;1.50;1.40;;;21.80;33.20;;;;;;5063875;28;20087;-63
2021/04/15 01:02:22;;;;;;;1.90;1.27;;;21.80;33.20;;;;;;5063828;28;20079;-63
2021/04/15 01:04:54;;;;;;;1.17;1.08;;;21.80;33.10;;;;;;5063218;28;20048;-63
2021/04/15 01:07:21;;;;;;;1.63;1.30;;;21.80;33.10;;;;;;5064125;28;20068;-63
2021/04/15 01:09:48;;;;;;;1.45;1.35;;;21.90;33.20;;;;;;5063097;28;20049;-63
2021/04/15 01:12:29;;;;;;;1.35;1.20;;;21.90;33.10;;;;;;5063661;28;20072;-64
2021/04/15 01:15:16;;;;;;;1.95;1.33;;;21.90;33.10;;;;;;5063388;28;20144;-64
2021/04/15 01:17:55;;;;;;;1.60;1.40;;;21.90;33.10;;;;;;5063233;28;20214;-64
2021/04/15 01:21:01;;;;;;;1.70;1.60;;;21.90;33.10;;;;;;5063303;28;20698;-66
2021/04/15 01:23:37;;;;;;;1.30;1.20;;;21.80;33.10;;;;;;5063117;28;20056;-65
2021/04/15 01:26:28;;;;;;;1.85;1.65;;;21.80;33.10;;;;;;5063885;28;20132;-65
2021/04/15 01:29:24;;;;;;;1.63;1.52;;;21.80;33.10;;;;;;5062943;28;20040;-65
2021/04/15 01:32:12;;;;;;;1.50;1.40;;;21.80;33.10;;;;;;5063074;28;20559;-64
2021/04/15 01:34:55;;;;;;;1.45;1.30;;;21.80;33.10;;;;;;5066767;28;20072;-64
2021/04/15 01:37:38;;;;;;;1.00;0.90;;;21.80;33.10;;;;;;5066944;28;20086;-65
2021/04/15 01:40:21;;;;;;;1.05;1.05;;;21.80;33.10;;;;;;5066376;28;20045;-65
2021/04/15 01:43:15;;;;;;;1.10;1.10;;;21.80;33.20;;;;;;5066960;28;20045;-65
2021/04/15 01:45:48;;;;;;;1.35;1.20;;;21.80;33.10;;;;;;5067022;28;20049;-65
2021/04/15 01:48:34;;;;;;;1.67;1.40;;;21.80;33.10;;;;;;5066875;28;20094;-65
2021/04/15 01:51:08;;;;;;;2.70;1.50;;;21.80;33.10;;;;;;5066023;28;20060;-66
2021/04/15 01:53:48;;;;;;;1.95;1.45;;;21.70;33.10;;;;;;5066697;28;20071;-66
2021/04/15 01:56:23;;;;;;;2.67;1.20;;;21.70;33.10;;;;;;5067066;28;20052;-65
2021/04/15 01:59:03;;;;;;;1.27;1.17;;;21.80;33.10;;;;;;5066509;28;20055;-65
2021/04/15 02:01:35;;;;;;;1.48;1.38;;;21.80;33.10;;;;;;5066884;28;20149;-65
2021/04/15 02:04:05;;;;;;;1.77;1.50;;;21.80;33.10;;;;;;5066406;28;20294;-65
2021/04/15 02:06:33;;;;;;;;;;;21.80;33.10;;;;;;5066853;28;20140;-65
2021/04/15 02:09:06;;;;;;;1.48;1.30;;;21.80;33.00;;;;;;5066264;28;20504;-66
2021/04/15 02:11:48;;;;;;;1.95;1.50;;;21.80;33.10;;;;;;5066177;28;20113;-66
2021/04/15 02:14:23;;;;;;;1.42;1.33;;;21.80;33.10;;;;;;5065987;28;20045;-66
2021/04/15 02:16:53;;;;;;;1.60;1.50;;;21.80;33.10;;;;;;5066538;28;20102;-65
2021/04/15 02:19:36;;;;;;;1.67;1.52;;;21.80;33.10;;;;;;5066334;28;20110;-65
2021/04/15 02:22:16;;;;;;;1.30;1.20;;;21.70;33.00;;;;;;5065601;28;20051;-65
2021/04/15 02:25:05;;;;;;;3.13;1.42;;;21.70;33.10;;;;;;5044444;28;20132;-65
2021/04/15 02:27:54;;;;;;;1.60;1.50;;;21.70;33.00;;;;;;5046077;28;20080;-66
2021/04/15 02:30:28;;;;;;;1.27;1.17;;;21.70;33.10;;;;;;5045682;28;20561;-67
2021/04/15 02:33:23;;;;;;;1.70;1.60;;;21.70;33.10;;;;;;5044790;28;20049;-67
2021/04/15 02:35:54;;;;;;;1.92;1.27;;;21.70;33.10;;;;;;5044272;28;20082;-65
2021/04/15 02:38:28;;;;;;;1.17;1.10;;;21.70;33.10;;;;;;5046073;28;20325;-65
2021/04/15 02:41:00;;;;;;;1.50;1.40;;;21.70;33.10;;;;;;5045979;28;20502;-65
2021/04/15 02:43:49;;;;;;;1.58;1.48;;;21.70;33.10;;;;;;5046007;28;20051;-65
2021/04/15 02:46:20;;;;;;;1.42;1.33;;;21.70;33.00;;;;;;5045531;28;20135;-67
2021/04/15 02:48:49;;;;;;;1.30;1.20;;;21.70;33.10;;;;;;5044846;28;20453;-66
2021/04/15 02:51:36;;;;;;;0.98;0.98;;;21.70;33.00;;;;;;5046999;28;20127;-66
2021/04/15 02:54:17;;;;;;;1.55;1.45;;;21.70;33.10;;;;;;5066021;28;20113;-65
2021/04/15 02:57:01;;;;;;;1.40;1.30;;;21.70;33.10;;;;;;5065355;28;20135;-65
2021/04/15 02:59:37;;;;;;;2.47;1.20;;;21.70;33.00;;;;;;5065378;28;20140;-65
2021/04/15 03:02:09;;;;;;;1.23;1.13;;;21.70;33.00;;;;;;5065425;28;20132;-65
2021/04/15 03:04:39;;;;;;;1.30;1.20;;;21.70;33.00;;;;;;5065860;28;20302;-65
2021/04/15 03:07:06;;;;;;;;;;;21.70;33.00;;;;;;5066434;28;20053;-67
2021/04/15 03:09:35;;;;;;;1.15;1.10;;;21.70;33.00;;;;;;5065404;28;19924;-66
2021/04/15 03:12:09;;;;;;;1.33;1.23;;;21.70;33.00;;;;;;5064646;28;20044;-65
2021/04/15 03:15:03;;;;;;;1.20;1.10;;;21.70;33.00;;;;;;5064993;28;20471;-65
2021/04/15 03:17:32;;;;;;;1.30;1.20;;;21.70;33.00;;;;;;5065087;28;20481;-65
2021/04/15 03:20:05;;;;;;;1.10;1.00;;;21.60;33.00;;;;;;5065663;28;20150;-65
2021/04/15 03:22:50;;;;;;;1.13;1.05;;;21.60;33.00;;;;;;5064662;28;20515;-65
2021/04/15 03:25:17;;;;;;;2.25;1.50;;;21.60;33.00;;;;;;5064909;28;20179;-66
2021/04/15 03:28:11;;;;;;;1.27;1.17;;;21.60;33.00;;;;;;5064927;28;20080;-67
2021/04/15 03:31:05;;;;;;;1.48;1.38;;;21.60;33.00;;;;;;5064872;28;20247;-65
2021/04/15 03:33:59;;;;;;;1.40;1.30;;;21.60;33.00;;;;;;5064481;28;20497;-65
2021/04/15 03:36:37;;;;;;;1.50;1.08;;;21.60;33.00;;;;;;5064654;28;20417;-65
2021/04/15 03:39:15;;;;;;;1.17;1.10;;;21.60;33.00;;;;;;5064018;28;20345;-65
2021/04/15 03:41:48;;;;;;;1.17;1.08;;;21.60;33.00;;;;;;5064249;28;20497;-66
2021/04/15 03:44:25;;;;;;;1.20;1.10;;;21.60;33.00;;;;;;5064646;28;20082;-64
2021/04/15 03:47:05;;;;;;;1.85;1.20;;;21.60;33.00;;;;;;5064281;28;20091;-64
2021/04/15 03:49:47;;;;;;;;;;;21.60;33.00;;;;;;5064841;28;20063;-65
2021/04/15 03:52:25;;;;;;;1.15;1.10;;;21.60;32.90;;;;;;5063896;28;20026;-65
2021/04/15 03:55:00;;;;;;;1.45;1.35;;;21.60;32.90;;;;;;5064241;28;20060;-65
2021/04/15 03:57:27;;;;;;;1.65;1.42;;;21.60;33.50;;;;;;5064484;28;20091;-65
2021/04/15 04:00:11;;;;;;;1.33;1.23;;;21.70;32.90;;;;;;5063885;28;20527;-65
2021/04/15 04:02:43;;;;;;;1.23;1.13;;;21.60;32.90;;;;;;5084660;28;20071;-64
2021/04/15 04:05:16;;;;;;;1.40;1.30;;;21.60;32.90;;;;;;5083564;28;20070;-64
2021/04/15 04:07:51;;;;;;;1.38;1.20;;;21.60;32.90;;;;;;5084532;28;20048;-64
2021/04/15 04:10:26;;;;;;;1.15;1.05;;;21.60;32.90;;;;;;5083834;28;20419;-65
2021/04/15 04:13:25;;;;;;;1.23;1.13;;;21.60;32.90;;;;;;5084589;28;20044;-65
2021/04/15 04:16:02;;;;;;;1.30;1.20;;;21.60;32.90;;;;;;5084269;28;20048;-65
2021/04/15 04:18:53;;;;;;;1.30;1.20;;;21.60;32.90;;;;;;5084126;28;20075;-65
2021/04/15 04:21:48;;;;;;;1.10;1.00;;;21.60;32.90;;;;;;5084428;28;20052;-67
2021/04/15 04:24:31;;;;;;;1.40;1.23;;;21.60;32.90;;;;;;5064832;28;20125;-67
2021/04/15 04:27:09;;;;;;;0.95;0.95;;;21.60;32.80;;;;;;5051504;28;20064;-66
2021/04/15 04:30:06;;;;;;;1.80;1.27;;;21.60;32.80;;;;;;5051492;28;20075;-65
2021/04/15 04:32:33;;;;;;;1.27;1.17;;;21.60;32.80;;;;;;5043962;28;20099;-65
2021/04/15 04:35:02;;;;;;;0.93;0.82;;;21.60;32.80;;;;;;5050843;28;20230;-65
2021/04/15 04:37:42;;;;;;;1.17;1.05;;;21.60;32.80;;;;;;5052306;28;20041;-65
2021/04/15 04:40:22;;;;;;;0.90;0.82;;;21.60;32.80;;;;;;5050944;28;20654;-64
2021/04/15 04:42:55;;;;;;;1.10;0.95;;;21.60;32.80;;;;;;5050951;28;20318;-65
2021/04/15 04:45:23;;;;;;;1.25;1.10;;;21.60;32.70;;;;;;5053402;28;20049;-64
2021/04/15 04:48:01;;;;;;;0.90;0.90;;;21.70;32.80;;;;;;5044673;28;20041;-64
2021/04/15 04:50:40;;;;;;;1.30;1.20;;;21.70;32.80;;;;;;5051092;28;20134;-65
2021/04/15 04:53:11;;;;;;;1.17;0.85;;;21.70;32.70;;;;;;5053409;28;20352;-65
2021/04/15 04:56:10;;;;;;;1.25;1.15;;;21.70;32.70;;;;;;5050081;28;20448;-65
2021/04/15 04:58:36;;;;;;;1.35;0.93;;;21.70;32.70;;;;;;5051070;28;20098;-66
2021/04/15 05:01:06;;;;;;;0.70;0.70;;;21.70;32.70;;;;;;5052837;28;20044;-66
2021/04/15 05:03:34;;;;;;;1.80;1.00;;;21.70;32.60;;;;;;5049909;28;20113;-67
2021/04/15 05:06:08;;;;;;;1.15;1.05;;;21.70;32.50;;;;;;5050790;28;20156;-66
2021/04/15 05:08:59;;;;;;;1.42;0.90;;;21.70;32.50;;;;;;5053582;28;20436;-65
2021/04/15 05:11:37;;;;;;;1.85;1.00;;;21.80;32.40;;;;;;5054190;28;20307;-65
2021/04/15 05:14:05;;;;;;;4.78;1.38;;;21.80;32.80;;;;;;5057210;28;20050;-65
2021/04/15 05:16:43;;;;;;;1.05;0.95;;;21.80;32.10;;;;;;5054490;28;20095;-65
2021/04/15 05:19:10;;;;;;;1.88;1.40;;;21.80;31.90;;;;;;5045868;28;20513;-67
2021/04/15 05:21:39;;;;;;;1.40;1.30;;;21.90;31.80;;;;;;5060817;28;20405;-66
2021/04/15 05:24:16;;;;;;;3.70;1.20;;;21.90;31.70;;;;;;5066731;28;20471;-67
2021/04/15 05:26:47;;;;;;;1.42;1.33;;;21.90;31.60;;;;;;5058962;28;20217;-67
2021/04/15 05:29:22;;;;;;;1.10;1.00;;;21.90;31.40;;;;;;5048706;28;20084;-65
2021/04/15 05:31:52;;;;;;;1.98;1.40;;;22.00;31.40;;;;;;5061057;28;20060;-67
2021/04/15 05:34:45;;;;;;;2.40;0.95;;;22.00;31.30;;;;;;5057659;28;20040;-67
2021/04/15 05:37:18;;;;;;;1.73;1.30;;;22.10;31.40;;;;;;5054361;28;20182;-66
2021/04/15 05:39:46;;;;;;;1.38;1.25;;;22.20;31.10;;;;;;5047132;28;20075;-66
2021/04/15 05:42:23;;;;;;;1.20;1.10;;;22.20;31.00;;;;;;5051975;28;20052;-64
2021/04/15 05:44:56;;;;;;;1.30;1.20;;;22.30;31.00;;;;;;5049793;28;20052;-62
2021/04/15 05:47:37;;;;;;;5.22;1.17;;;22.40;31.20;;;;;;5054785;28;20049;-63
2021/04/15 05:50:07;;;;;;;1.40;1.30;;;22.50;31.10;;;;;;5058566;28;20140;-65
2021/04/15 05:52:37;;;;;;;;;;;22.50;31.10;;;;;;5056760;28;20076;-63
2021/04/15 05:55:11;;;;;;;2.17;1.42;;;22.60;31.10;;;;;;5059038;28;20289;-63
2021/04/15 05:57:43;;;;;;;2.92;1.42;;;22.70;30.80;;;;;;5051578;28;20047;-62
2021/04/15 06:00:24;;;;;;;2.00;1.27;;;22.70;30.50;;;;;;5054194;28;20045;-62
2021/04/15 06:03:05;;;;;;;1.95;1.40;;;22.80;30.50;;;;;;5051104;28;20098;-63
2021/04/15 06:05:51;;;;;;;2.25;1.42;;;22.90;30.40;;;;;;5051992;28;20129;-62
2021/04/15 06:08:19;;;;;;;1.50;1.40;;;22.90;30.10;;;;;;5057569;28;20121;-64
2021/04/15 06:10:46;;;;;;;2.50;1.63;;;23.00;30.20;;;;;;5052484;28;20053;-63
2021/04/15 06:13:42;;;;;;;1.73;1.45;;;23.10;30.20;;;;;;5053064;28;20076;-63
2021/04/15 06:16:19;;;;;;;1.48;1.33;;;23.20;30.20;;;;;;5069486;28;20084;-61
2021/04/15 06:19:11;;;;;;;2.10;1.55;;;23.20;30.10;;;;;;5054473;28;20048;-66
2021/04/15 06:21:44;;;;;;;2.88;1.30;;;23.30;30.00;;;;;;5057257;28;20110;-65
2021/04/15 06:24:27;;;;;;;1.83;1.63;;;23.40;30.00;;;;;;5052030;28;20099;-63
2021/04/15 06:26:55;;;;;;;1.63;1.40;;;23.40;29.90;;;;;;5052490;28;20129;-63
2021/04/15 06:29:40;;;;;;;3.75;1.80;;;23.50;29.80;;;;;;5054254;28;20141;-64
2021/04/15 06:32:13;;;;;;;3.17;1.65;;;23.50;29.60;;;;;;5051328;28;20087;-66
2021/04/15 06:34:40;;;;;;;2.05;1.58;;;23.60;29.70;;;;;;5057074;28;20110;-64
2021/04/15 06:37:16;;;;;;;3.08;1.67;;;23.60;29.60;;;;;;5064013;28;20111;-73
2021/04/15 06:39:54;;;;;;;1.95;1.42;;;23.60;29.60;;;;;;5052010;28;20548;-63
2021/04/15 06:43:00;;;;;;;1.80;1.55;;;23.70;29.70;;;;;;5052634;28;20131;-61
2021/04/15 06:45:58;;;;;;;2.55;1.42;;;23.70;29.80;;;;;;5056553;28;20057;-66
2021/04/15 06:49:04;;;;;;;3.80;1.50;;;23.70;29.80;;;;;;5052670;28;20156;-63
2021/04/15 06:51:57;;;;;;;3.15;2.05;;;23.70;29.80;;;;;;5050509;28;20493;-66
2021/04/15 06:54:54;;;;;;;2.88;1.95;;;23.70;29.70;;;;;;5053881;28;20098;-66
2021/04/15 06:58:00;;;;;;;2.00;1.35;;;23.70;29.60;;;;;;5055918;28;20072;-66
2021/04/15 07:01:00;;;;;;;2.47;1.50;;;23.70;29.60;;;;;;5053182;28;20074;-64
2021/04/15 07:04:07;;;;;;;1.55;1.25;;;23.70;29.50;;;;;;5055998;28;20056;-63
2021/04/15 07:06:52;;;;;;;1.52;1.40;;;23.70;29.60;;;;;;5050710;28;20045;-62
2021/04/15 07:09:45;;;;;;;5.60;1.63;;;23.70;29.70;;;;;;5050180;28;20063;-62
2021/04/15 07:12:35;;;;;;;1.52;1.13;;;23.70;29.70;;;;;;5053836;28;20041;-62
2021/04/15 07:15:42;;;;;;;1.65;1.25;;;23.70;29.80;;;;;;5051643;28;20045;-62
2021/04/15 07:18:48;;;;;;;1.52;1.30;;;23.70;29.80;;;;;;5057271;28;20048;-65
2021/04/15 07:21:48;;;;;;;1.92;1.60;;;23.80;29.90;;;;;;5052684;28;20037;-66
2021/04/15 07:24:46;;;;;;;1.67;1.40;;;23.80;29.90;;;;;;5054981;28;20053;-64
2021/04/15 07:27:24;;;;;;;;;;;23.80;29.90;;;;;;5054901;28;20051;-66
2021/04/15 07:30:16;;;;;;;1.77;1.17;;;23.80;29.90;;;;;;5050241;28;20023;-69
2021/04/15 07:33:16;;;;;;;1.92;1.75;;;23.80;29.90;;;;;;5052863;28;20122;-73
2021/04/15 07:36:08;;;;;;;3.97;1.20;;;23.80;29.90;;;;;;5050611;28;20044;-65
2021/04/15 07:38:55;;;;;;;;;;;23.80;29.90;;;;;;5049315;28;20110;-66
2021/04/15 07:41:36;;;;;;;1.20;1.10;;;23.80;29.90;;;;;;5054694;28;20411;-66
2021/04/15 07:44:28;;;;;;;1.98;1.38;;;23.80;29.90;;;;;;5046409;28;20048;-68
2021/04/15 07:47:32;;;;;;;1.35;1.25;;;23.80;29.90;;;;;;5054835;28;20080;-68
2021/04/15 07:50:29;;;;;;;3.78;1.50;;;23.80;29.90;;;;;;5051581;28;20477;-68
2021/04/15 07:53:18;;;;;;;1.60;1.38;;;23.80;29.80;;;;;;5053354;28;20120;-63
2021/04/15 07:56:12;;;;;;;2.17;1.20;;;23.80;29.80;;;;;;5052467;28;20083;-69
2021/04/15 07:59:16;;;;;;;3.22;1.20;;;23.80;29.80;;;;;;5049249;28;20041;-66
2021/04/15 08:02:15;;;;;;;3.78;1.40;;;23.80;29.80;;;;;;5050500;28;20120;-69
2021/04/15 08:05:11;;;;;;;2.42;1.15;;;23.80;29.70;;;;;;5058297;28;20109;-68
2021/04/15 08:08:18;;;;;;;1.73;1.17;;;23.80;29.60;;;;;;5056279;28;20076;-67
2021/04/15 08:11:16;;;;;;;2.67;1.55;;;23.80;29.50;;;;;;5047493;28;20080;-67
2021/04/15 08:14:23;;;;;;;2.20;1.20;;;23.80;29.40;;;;;;5056834;28;20102;-66
2021/04/15 08:17:29;;;;;;;2.25;1.33;;;23.80;29.30;;;;;;5055618;28;20056;-66
2021/04/15 08:20:27;;;;;;;2.00;1.38;;;23.80;29.30;;;;;;5053946;28;20052;-66
2021/04/15 08:23:33;;;;;;;1.45;1.35;;;23.80;29.20;;;;;;5055927;28;20082;-66
2021/04/15 08:26:38;;;;;;;1.23;1.13;;;23.80;29.30;;;;;;5054884;28;20832;-65
2021/04/15 08:29:44;;;;;;;5.05;1.48;;;23.80;29.30;;;;;;5050102;28;20410;-62
2021/04/15 08:32:35;;;;;;;3.17;1.05;;;23.80;29.70;;;;;;5051459;28;20111;-63
2021/04/15 08:35:20;;;;;;;1.42;1.15;;;23.80;29.30;;;;;;5050699;28;20170;-62
2021/04/15 08:38:13;;;;;;;3.45;1.30;;;23.90;29.40;;;;;;5048681;28;20616;-63
2021/04/15 08:41:10;;;;;;;1.92;1.10;;;23.90;29.40;;;;;;5054642;28;20815;-62
2021/04/15 08:44:11;;;;;;;6.13;1.48;;;23.90;29.30;;;;;;5051977;28;20131;-64
2021/04/15 08:47:08;;;;;;;3.33;1.50;;;24.00;29.20;;;;;;5045664;28;20378;-62
2021/04/15 08:50:02;;;;;;;2.20;1.70;;;23.90;29.00;;;;;;5055719;28;20052;-62
2021/04/15 08:52:43;;;;;;;2.60;1.30;;;24.00;29.00;;;;;;5049489;28;20079;-62
2021/04/15 08:55:35;;;;;;;1.60;1.33;;;24.00;28.90;;;;;;5052433;28;21522;-62
2021/04/15 08:58:32;;;;;;;2.85;1.20;;;24.10;28.80;;;;;;5048597;28;20578;-60
2021/04/15 09:01:32;;;;;;;1.42;1.27;;;24.10;28.80;;;;;;5054015;28;20213;-61
2021/04/15 09:04:04;;;;;;;;;;;24.20;28.80;;;;;;5053805;28;20059;-61
2021/04/15 09:07:02;;;;;;;1.55;1.13;;;24.20;28.70;;;;;;5042427;28;20361;-61
2021/04/15 09:10:10;;;;;;;1.38;1.20;;;24.20;28.70;;;;;;5046451;28;20508;-61
2021/04/15 09:12:59;;;;;;;3.30;1.35;;;24.30;28.60;;;;;;5048817;28;20045;-61
2021/04/15 09:15:40;;;;;;;1.63;1.20;;;24.30;28.60;;;;;;5050956;28;20045;-62
2021/04/15 09:18:24;;;;;;;2.17;1.17;;;24.30;28.50;;;;;;5049206;28;20602;-61
2021/04/15 09:21:31;;;;;;;1.27;1.17;;;24.30;28.60;;;;;;5049141;28;20049;-62
2021/04/15 09:24:42;;;;;;;2.35;1.30;;;24.40;28.60;;;;;;5048330;28;20128;-60
2021/04/15 09:27:37;;;;;;;4.45;1.20;;;24.40;28.70;;;;;;5061143;28;20118;-62
2021/04/15 09:30:40;;;;;;;4.15;1.20;;;24.50;28.80;;;;;;5049858;28;20083;-61
2021/04/15 09:33:39;;;;;;;2.45;1.30;;;24.50;28.90;;;;;;5049452;28;20812;-60
2021/04/15 09:36:45;;;;;;;2.17;1.35;;;24.50;28.80;;;;;;5052936;28;20135;-61
2021/04/15 09:39:36;;;;;;;5.45;1.27;;;24.50;28.60;;;;;;5047552;28;20686;-61
2021/04/15 09:42:40;;;;;;;3.05;1.10;;;24.60;28.40;;;;;;5050584;28;20041;-63
2021/04/15 09:45:26;;;;;;;2.03;1.83;;;24.60;28.30;;;;;;5048860;28;20099;-60
2021/04/15 09:48:29;;;;;;;2.10;1.30;;;24.60;28.60;;;;;;5049451;28;20151;-61
2021/04/15 09:51:22;;;;;;;1.80;1.10;;;24.70;28.60;;;;;;5051722;28;20553;-63
2021/04/15 09:54:21;;;;;;;1.65;1.08;;;24.70;28.60;;;;;;5051736;28;20135;-61
2021/04/15 09:57:24;;;;;;;2.35;1.30;;;24.80;28.60;;;;;;5048803;28;20053;-64
2021/04/15 10:00:14;;;;;;;3.15;1.20;;;24.80;28.60;;;;;;5054663;28;20130;-63
2021/04/15 10:03:17;;;;;;;4.47;1.30;;;24.80;28.70;;;;;;5057481;28;20045;-66
2021/04/15 10:06:16;;;;;;;3.63;1.70;;;24.80;28.70;;;;;;5056682;28;20048;-60
2021/04/15 10:09:12;;;;;;;1.70;1.58;;;24.90;28.70;;;;;;5055581;28;20087;-64
2021/04/15 10:12:05;;;;;;;1.90;1.27;;;24.90;28.60;;;;;;5049934;28;20106;-65
2021/04/15 10:15:11;;;;;;;1.08;0.98;;;24.90;28.40;;;;;;5056215;28;20131;-66
2021/04/15 10:18:07;;;;;;;1.60;1.40;;;24.90;28.30;;;;;;5050140;28;20124;-63
2021/04/15 10:20:59;;;;;;;1.20;1.10;;;25.00;28.40;;;;;;5053057;28;20045;-64
2021/04/15 10:24:04;;;;;;;3.88;1.20;;;25.00;28.20;;;;;;5052626;28;20087;-64
2021/04/15 10:27:01;;;;;;;0.95;0.80;;;25.00;28.00;;;;;;5051214;28;20037;-65
2021/04/15 10:30:01;;;;;;;1.27;1.10;;;25.10;27.90;;;;;;5056956;28;20535;-60
2021/04/15 10:32:49;;;;;;;;;;;25.10;27.90;;;;;;5059027;28;20456;-61
2021/04/15 10:35:55;;;;;;;1.58;1.00;;;25.10;27.80;;;;;;5052211;28;19925;-63
2021/04/15 10:39:01;;;;;;;1.60;1.08;;;25.20;27.80;;;;;;5054357;28;20132;-63
2021/04/15 10:42:08;;;;;;;1.92;1.25;;;25.20;27.70;;;;;;5053092;28;20496;-65
2021/04/15 10:45:07;;;;;;;2.30;1.05;;;25.20;27.60;;;;;;5053512;28;20125;-62
2021/04/15 10:48:09;;;;;;;7.20;0.85;;;25.20;27.60;;;;;;5055349;28;20084;-62
2021/04/15 10:51:12;;;;;;;1.20;1.02;;;25.20;27.50;;;;;;5056146;28;20068;-62
2021/04/15 10:53:50;;;;;;;0.90;0.68;;;25.20;27.40;;;;;;5048724;28;20193;-65
2021/04/15 10:56:42;;;;;;;1.73;0.80;;;25.20;27.30;;;;;;5052553;28;20425;-64
2021/04/15 10:59:35;;;;;;;1.45;1.35;;;25.30;27.30;;;;;;5053969;28;20155;-65
2021/04/15 11:02:28;;;;;;;0.98;0.80;;;25.30;27.30;;;;;;5052391;28;20122;-66
2021/04/15 11:05:17;;;;;;;2.15;0.75;;;25.20;27.30;;;;;;5054081;28;20045;-64
2021/04/15 11:07:45;;;;;;;2.05;1.15;;;25.20;27.20;;;;;;5052207;28;20147;-64
2021/04/15 11:10:21;;;;;;;1.02;0.95;;;25.10;27.10;;;;;;5048917;28;20167;-64
2021/04/15 11:12:48;;;;;;;1.88;0.80;;;25.20;27.10;;;;;;5048841;28;20072;-64
2021/04/15 11:15:34;;;;;;;1.38;0.90;;;25.10;26.90;;;;;;5049298;28;20430;-63
2021/04/15 11:18:09;;;;;;;0.82;0.70;;;25.20;27.00;;;;;;5049842;28;20052;-62
2021/04/15 11:20:36;;;;;;;1.27;0.65;;;25.30;27.00;;;;;;5047683;28;20498;-63
2021/04/15 11:23:28;;;;;;;1.30;1.20;;;25.30;27.00;;;;;;5053422;28;20045;-62
2021/04/15 11:26:17;;;;;;;1.00;0.70;;;25.30;26.80;;;;;;5053957;28;20098;-63
2021/04/15 11:28:45;;;;;;;1.15;0.93;;;25.30;26.80;;;;;;5056462;28;20060;-62
2021/04/15 11:31:26;;;;;;;0.57;0.57;;;25.30;26.70;;;;;;5052440;28;20045;-60
2021/04/15 11:34:05;;;;;;;1.65;0.50;;;25.40;27.20;;;;;;5057447;28;20098;-61
2021/04/15 11:36:35;;;;;;;2.25;0.60;;;25.40;26.60;;;;;;5051348;28;20064;-63
2021/04/15 11:39:12;;;;;;;0.68;0.68;;;25.50;26.60;;;;;;5049564;28;20045;-62
2021/04/15 11:42:02;;;;;;;1.52;0.80;;;25.50;26.40;;;;;;5050808;28;20087;-63
2021/04/15 11:44:33;;;;;;;1.42;0.52;;;25.50;26.30;;;;;;5051023;28;20121;-65
2021/04/15 11:47:23;;;;;;;0.73;0.70;;;25.50;26.10;;;;;;5050813;28;20041;-63
2021/04/15 11:49:52;;;;;;;2.42;0.50;;;25.50;26.10;;;;;;5046854;28;20053;-63
2021/04/15 11:52:32;;;;;;;0.85;0.85;;;25.50;26.00;;;;;;5050375;28;20798;-63
2021/04/15 11:55:06;;;;;;;1.88;0.90;;;25.50;26.00;;;;;;5051421;28;20122;-62
2021/04/15 11:57:38;;;;;;;1.48;0.90;;;25.50;26.00;;;;;;5050071;28;20106;-61
2021/04/15 12:00:18;;;;;;;1.17;0.65;;;25.60;26.00;;;;;;5047140;28;20135;-61
2021/04/15 12:02:49;;;;;;;0.93;0.60;;;25.60;26.00;;;;;;5046899;28;20132;-60
2021/04/15 12:05:29;;;;;;;0.77;0.60;;;25.60;25.90;;;;;;5049131;28;20037;-61
2021/04/15 12:08:15;;;;;;;0.85;0.80;;;25.70;26.00;;;;;;5056232;28;20052;-61
2021/04/15 12:11:04;;;;;;;0.90;0.65;;;25.70;26.00;;;;;;5051615;28;20102;-61
2021/04/15 12:13:46;;;;;;;0.53;0.53;;;25.70;26.10;;;;;;5033910;28;20076;-62
2021/04/15 12:16:20;;;;;;;1.17;0.68;;;25.70;26.10;;;;;;5036239;28;20152;-63
2021/04/15 12:18:59;;;;;;;0.75;0.65;;;25.60;26.00;;;;;;5048373;28;20052;-63
2021/04/15 12:22:01;;;;;;;1.77;1.00;;;25.60;26.00;;;;;;5052473;28;20143;-62
2021/04/15 12:24:40;;;;;;;1.05;0.73;;;25.70;25.90;;;;;;5046177;28;20080;-64
2021/04/15 12:27:25;;;;;;;2.67;0.70;;;25.60;25.70;;;;;;5050237;28;20135;-65
2021/04/15 12:30:16;;;;;;;1.92;0.80;;;25.70;25.70;;;;;;5050182;28;20760;-64
2021/04/15 12:33:10;;;;;;;1.75;1.00;;;25.70;25.70;;;;;;5053059;28;20060;-65
2021/04/15 12:36:06;;;;;;;1.13;0.82;;;25.70;25.80;;;;;;5050323;28;20497;-63
2021/04/15 12:38:53;;;;;;;1.17;1.02;;;25.70;25.80;;;;;;5051426;28;20067;-64
2021/04/15 12:41:19;;;;;;;1.27;0.93;;;25.70;25.90;;;;;;5047978;28;20131;-63
2021/04/15 12:43:52;;;;;;;2.10;0.88;;;25.80;26.10;;;;;;5049458;28;20593;-62
2021/04/15 12:46:25;;;;;;;1.13;0.75;;;25.80;26.00;;;;;;5050340;28;20526;-60
2021/04/15 12:48:56;;;;;;;3.65;1.00;;;25.80;26.00;;;;;;5051336;28;20132;-61
2021/04/15 12:51:26;;;;;;;1.83;0.88;;;25.80;26.00;;;;;;5050570;28;20135;-60
2021/04/15 12:54:34;;;;;;;4.03;1.00;;;25.80;26.10;;;;;;5051102;28;20122;-62
2021/04/15 12:57:07;;;;;;;1.95;0.90;;;25.80;26.10;;;;;;5048862;28;20486;-61
2021/04/15 12:59:48;;;;;;;3.80;0.85;;;25.70;26.10;;;;;;5051587;28;20048;-62
2021/04/15 13:02:25;;;;;;;3.20;0.93;;;25.70;26.30;;;;;;5047874;28;20049;-62
2021/04/15 13:04:58;;;;;;;2.22;1.08;;;25.70;26.50;;;;;;5050605;28;20139;-65
2021/04/15 13:07:34;;;;;;;1.85;0.70;;;25.60;26.50;;;;;;5049270;28;20472;-63
2021/04/15 13:10:26;;;;;;;1.65;0.95;;;25.70;26.60;;;;;;5046572;28;20186;-65
2021/04/15 13:12:56;;;;;;;2.22;1.05;;;25.80;26.70;;;;;;5048869;28;20935;-62
2021/04/15 13:15:37;;;;;;;;;;;25.70;26.60;;;;;;5047604;28;20041;-63
2021/04/15 13:18:06;;;;;;;3.00;1.30;;;25.90;26.60;;;;;;5047013;28;19925;-61
2021/04/15 13:20:40;;;;;;;3.90;1.05;;;25.90;26.60;;;;;;5051515;28;20128;-62
2021/04/15 13:23:30;;;;;;;3.00;1.30;;;25.90;26.50;;;;;;5056855;28;20045;-62
2021/04/15 13:26:24;;;;;;;3.72;1.13;;;26.00;26.50;;;;;;5051198;28;20061;-63
2021/04/15 13:29:15;;;;;;;2.97;1.38;;;26.00;26.50;;;;;;5051686;28;20052;-64
2021/04/15 13:31:49;;;;;;;1.10;0.82;;;26.00;26.40;;;;;;5054090;28;20119;-66
2021/04/15 13:34:20;;;;;;;5.32;1.20;;;26.00;26.40;;;;;;5056113;28;20052;-61
2021/04/15 13:36:49;;;;;;;1.48;0.82;;;26.00;26.30;;;;;;5051347;28;20053;-63
2021/04/15 13:39:37;;;;;;;1.60;0.80;;;26.00;26.20;;;;;;5050957;28;20118;-65
2021/04/15 13:42:26;;;;;;;2.33;1.10;;;25.90;26.20;;;;;;5052597;28;20198;-62
2021/04/15 13:44:59;;;;;;;2.15;1.00;;;25.90;25.50;;;;;;5052994;28;20103;-62
2021/04/15 13:47:48;;;;;;;0.93;0.60;;;25.70;22.00;;;;;;5057293;28;20045;-61
2021/04/15 13:50:18;;;;;;;2.03;1.30;;;25.40;23.30;;;;;;5052499;28;20048;-62
2021/04/15 13:52:45;;;;;;;2.13;0.80;;;25.30;23.80;;;;;;5051657;28;20044;-61
2021/04/15 13:55:33;;;;;;;2.10;0.90;;;25.20;24.10;;;;;;5052359;28;20076;-62
2021/04/15 13:58:01;;;;;;;0.70;0.60;;;25.20;24.40;;;;;;5053125;28;20080;-61
2021/04/15 14:00:39;;;;;;;1.42;1.15;;;25.20;24.60;;;;;;5054496;28;20048;-62
2021/04/15 14:03:10;;;;;;;1.67;0.90;;;25.20;24.70;;;;;;5053453;28;20146;-61
2021/04/15 14:05:41;;;;;;;3.05;0.57;;;25.30;24.80;;;;;;5061114;28;20055;-61
2021/04/15 14:08:45;;;;;;;2.05;0.95;;;25.30;24.90;;;;;;5057744;28;20048;-63
2021/04/15 14:11:25;;;;;;;1.23;0.80;;;25.30;25.00;;;;;;5061414;28;20083;-63
2021/04/15 14:13:55;;;;;;;0.50;0.50;;;25.40;25.00;;;;;;5057757;28;20041;-60